sensor_id;sensor_type;location;lat;lon;timestamp;P1;durP1;ratioP1;P2;durP2;ratioP2
18917;SDS011;9591;52.742;13.650;2023-12-04T00:02:30;24.37;;;8.93;;
18917;SDS011;9591;52.742;13.650;2023-12-04T00:05:17;21.50;;;9.23;;
18917;SDS011;9591;52.742;13.650;2023-12-04T00:08:04;22.75;;;10.52;;
18917;SDS011;9591;52.742;13.650;2023-12-04T00:10:50;22.63;;;9.03;;
18917;SDS011;9591;52.742;13.650;2023-12-04T00:13:40;19.57;;;9.57;;
18917;SDS011;9591;52.742;13.650;2023-12-04T00:16:27;20.07;;;9.03;;
18917;SDS011;9591;52.742;13.650;2023-12-04T00:19:14;23.80;;;9.63;;
18917;SDS011;9591;52.742;13.650;2023-12-04T00:22:01;23.37;;;8.97;;
18917;SDS011;9591;52.742;13.650;2023-12-04T00:24:48;24.67;;;9.97;;
18917;SDS011;9591;52.742;13.650;2023-12-04T00:27:35;16.10;;;8.05;;
18917;SDS011;9591;52.742;13.650;2023-12-04T00:30:23;24.27;;;10.03;;
18917;SDS011;9591;52.742;13.650;2023-12-04T00:33:10;21.60;;;8.65;;
18917;SDS011;9591;52.742;13.650;2023-12-04T00:35:57;25.35;;;10.00;;
18917;SDS011;9591;52.742;13.650;2023-12-04T00:38:44;23.47;;;8.63;;
18917;SDS011;9591;52.742;13.650;2023-12-04T00:41:31;12.27;;;7.10;;
18917;SDS011;9591;52.742;13.650;2023-12-04T00:44:18;16.95;;;8.90;;
18917;SDS011;9591;52.742;13.650;2023-12-04T00:47:06;15.88;;;7.45;;
18917;SDS011;9591;52.742;13.650;2023-12-04T00:49:53;13.40;;;6.95;;
18917;SDS011;9591;52.742;13.650;2023-12-04T00:52:41;12.50;;;5.95;;
18917;SDS011;9591;52.742;13.650;2023-12-04T00:55:28;12.23;;;6.18;;
18917;SDS011;9591;52.742;13.650;2023-12-04T00:58:15;6.03;;;4.90;;
18917;SDS011;9591;52.742;13.650;2023-12-04T01:01:02;12.30;;;5.88;;
18917;SDS011;9591;52.742;13.650;2023-12-04T01:03:50;13.30;;;7.47;;
18917;SDS011;9591;52.742;13.650;2023-12-04T01:06:37;13.40;;;6.72;;
18917;SDS011;9591;52.742;13.650;2023-12-04T01:09:24;15.55;;;8.07;;
18917;SDS011;9591;52.742;13.650;2023-12-04T01:12:11;19.20;;;7.25;;
18917;SDS011;9591;52.742;13.650;2023-12-04T01:14:58;12.68;;;7.97;;
18917;SDS011;9591;52.742;13.650;2023-12-04T01:17:45;15.35;;;7.47;;
18917;SDS011;9591;52.742;13.650;2023-12-04T01:20:33;13.63;;;7.30;;
18917;SDS011;9591;52.742;13.650;2023-12-04T01:23:21;18.45;;;7.40;;
18917;SDS011;9591;52.742;13.650;2023-12-04T01:26:09;14.15;;;7.93;;
18917;SDS011;9591;52.742;13.650;2023-12-04T01:28:57;19.70;;;7.50;;
18917;SDS011;9591;52.742;13.650;2023-12-04T01:31:44;18.77;;;8.02;;
18917;SDS011;9591;52.742;13.650;2023-12-04T01:34:31;20.48;;;7.75;;
18917;SDS011;9591;52.742;13.650;2023-12-04T01:37:20;19.48;;;8.35;;
18917;SDS011;9591;52.742;13.650;2023-12-04T01:40:07;20.60;;;9.32;;
18917;SDS011;9591;52.742;13.650;2023-12-04T01:42:55;13.13;;;6.93;;
18917;SDS011;9591;52.742;13.650;2023-12-04T01:45:42;10.07;;;6.75;;
18917;SDS011;9591;52.742;13.650;2023-12-04T01:48:29;13.23;;;6.03;;
18917;SDS011;9591;52.742;13.650;2023-12-04T01:51:16;13.15;;;6.72;;
18917;SDS011;9591;52.742;13.650;2023-12-04T01:54:05;14.25;;;7.18;;
18917;SDS011;9591;52.742;13.650;2023-12-04T01:56:53;14.50;;;7.75;;
18917;SDS011;9591;52.742;13.650;2023-12-04T01:59:40;16.13;;;8.65;;
18917;SDS011;9591;52.742;13.650;2023-12-04T02:02:27;18.45;;;8.10;;
18917;SDS011;9591;52.742;13.650;2023-12-04T02:05:15;19.00;;;8.48;;
18917;SDS011;9591;52.742;13.650;2023-12-04T02:08:03;15.27;;;7.78;;
18917;SDS011;9591;52.742;13.650;2023-12-04T02:10:51;16.00;;;8.30;;
18917;SDS011;9591;52.742;13.650;2023-12-04T02:13:38;21.05;;;10.32;;
18917;SDS011;9591;52.742;13.650;2023-12-04T02:16:25;19.10;;;9.52;;
18917;SDS011;9591;52.742;13.650;2023-12-04T02:19:15;26.00;;;8.68;;
18917;SDS011;9591;52.742;13.650;2023-12-04T02:22:02;26.25;;;10.02;;
18917;SDS011;9591;52.742;13.650;2023-12-04T02:24:50;18.83;;;7.95;;
18917;SDS011;9591;52.742;13.650;2023-12-04T02:27:38;20.27;;;9.02;;
18917;SDS011;9591;52.742;13.650;2023-12-04T02:30:28;25.35;;;10.05;;
18917;SDS011;9591;52.742;13.650;2023-12-04T02:33:19;25.00;;;10.23;;
18917;SDS011;9591;52.742;13.650;2023-12-04T02:36:10;18.65;;;9.18;;
18917;SDS011;9591;52.742;13.650;2023-12-04T02:38:58;21.48;;;9.55;;
18917;SDS011;9591;52.742;13.650;2023-12-04T02:41:46;19.90;;;9.65;;
18917;SDS011;9591;52.742;13.650;2023-12-04T02:44:34;17.60;;;7.20;;
18917;SDS011;9591;52.742;13.650;2023-12-04T02:47:21;29.92;;;11.75;;
18917;SDS011;9591;52.742;13.650;2023-12-04T02:50:08;21.27;;;8.45;;
18917;SDS011;9591;52.742;13.650;2023-12-04T02:52:55;17.75;;;9.02;;
18917;SDS011;9591;52.742;13.650;2023-12-04T02:55:42;17.23;;;8.60;;
18917;SDS011;9591;52.742;13.650;2023-12-04T02:58:30;25.30;;;9.82;;
18917;SDS011;9591;52.742;13.650;2023-12-04T03:01:19;20.77;;;9.02;;
18917;SDS011;9591;52.742;13.650;2023-12-04T03:04:06;19.45;;;9.30;;
18917;SDS011;9591;52.742;13.650;2023-12-04T03:06:53;22.52;;;9.23;;
18917;SDS011;9591;52.742;13.650;2023-12-04T03:09:40;20.98;;;9.85;;
18917;SDS011;9591;52.742;13.650;2023-12-04T03:12:33;25.40;;;10.60;;
18917;SDS011;9591;52.742;13.650;2023-12-04T03:15:22;19.25;;;10.35;;
18917;SDS011;9591;52.742;13.650;2023-12-04T03:18:09;18.98;;;9.70;;
18917;SDS011;9591;52.742;13.650;2023-12-04T03:20:57;24.23;;;8.85;;
18917;SDS011;9591;52.742;13.650;2023-12-04T03:23:44;27.50;;;9.65;;
18917;SDS011;9591;52.742;13.650;2023-12-04T03:26:30;23.27;;;10.27;;
18917;SDS011;9591;52.742;13.650;2023-12-04T03:29:17;27.65;;;10.98;;
18917;SDS011;9591;52.742;13.650;2023-12-04T03:32:06;24.15;;;10.70;;
18917;SDS011;9591;52.742;13.650;2023-12-04T03:34:53;25.33;;;9.43;;
18917;SDS011;9591;52.742;13.650;2023-12-04T03:37:40;18.38;;;8.73;;
18917;SDS011;9591;52.742;13.650;2023-12-04T03:40:27;24.60;;;9.73;;
18917;SDS011;9591;52.742;13.650;2023-12-04T03:43:15;25.80;;;9.30;;
18917;SDS011;9591;52.742;13.650;2023-12-04T03:46:02;23.55;;;8.80;;
18917;SDS011;9591;52.742;13.650;2023-12-04T03:48:50;22.85;;;9.45;;
18917;SDS011;9591;52.742;13.650;2023-12-04T03:51:37;23.30;;;8.80;;
18917;SDS011;9591;52.742;13.650;2023-12-04T03:54:24;25.65;;;10.25;;
18917;SDS011;9591;52.742;13.650;2023-12-04T03:57:11;29.98;;;10.75;;
18917;SDS011;9591;52.742;13.650;2023-12-04T03:59:58;19.45;;;8.85;;
18917;SDS011;9591;52.742;13.650;2023-12-04T04:02:55;25.42;;;9.98;;
18917;SDS011;9591;52.742;13.650;2023-12-04T04:05:44;22.58;;;9.48;;
18917;SDS011;9591;52.742;13.650;2023-12-04T04:08:31;16.67;;;9.10;;
18917;SDS011;9591;52.742;13.650;2023-12-04T04:11:17;23.15;;;8.88;;
18917;SDS011;9591;52.742;13.650;2023-12-04T04:14:04;17.60;;;9.52;;
18917;SDS011;9591;52.742;13.650;2023-12-04T04:16:51;19.27;;;9.98;;
18917;SDS011;9591;52.742;13.650;2023-12-04T04:19:38;24.02;;;10.45;;
18917;SDS011;9591;52.742;13.650;2023-12-04T04:22:27;20.80;;;10.73;;
18917;SDS011;9591;52.742;13.650;2023-12-04T04:25:14;26.48;;;10.50;;
18917;SDS011;9591;52.742;13.650;2023-12-04T04:28:01;27.10;;;9.48;;
18917;SDS011;9591;52.742;13.650;2023-12-04T04:30:48;19.33;;;8.95;;
18917;SDS011;9591;52.742;13.650;2023-12-04T04:33:35;24.40;;;10.32;;
18917;SDS011;9591;52.742;13.650;2023-12-04T04:36:22;22.58;;;9.45;;
18917;SDS011;9591;52.742;13.650;2023-12-04T04:39:14;22.42;;;10.02;;
18917;SDS011;9591;52.742;13.650;2023-12-04T04:42:01;17.67;;;8.40;;
18917;SDS011;9591;52.742;13.650;2023-12-04T04:44:48;21.02;;;11.25;;
18917;SDS011;9591;52.742;13.650;2023-12-04T04:47:35;23.55;;;9.43;;
18917;SDS011;9591;52.742;13.650;2023-12-04T04:50:23;23.40;;;9.18;;
18917;SDS011;9591;52.742;13.650;2023-12-04T04:53:10;22.15;;;8.93;;
18917;SDS011;9591;52.742;13.650;2023-12-04T04:55:58;25.73;;;10.05;;
18917;SDS011;9591;52.742;13.650;2023-12-04T04:58:48;21.38;;;9.63;;
18917;SDS011;9591;52.742;13.650;2023-12-04T05:01:37;21.23;;;10.52;;
18917;SDS011;9591;52.742;13.650;2023-12-04T05:04:24;24.02;;;10.15;;
18917;SDS011;9591;52.742;13.650;2023-12-04T05:07:12;30.13;;;9.88;;
18917;SDS011;9591;52.742;13.650;2023-12-04T05:09:59;20.85;;;10.10;;
18917;SDS011;9591;52.742;13.650;2023-12-04T05:12:48;25.63;;;9.90;;
18917;SDS011;9591;52.742;13.650;2023-12-04T05:15:35;24.02;;;8.88;;
18917;SDS011;9591;52.742;13.650;2023-12-04T05:18:23;23.55;;;10.20;;
18917;SDS011;9591;52.742;13.650;2023-12-04T05:21:11;26.80;;;10.35;;
18917;SDS011;9591;52.742;13.650;2023-12-04T05:23:59;21.02;;;9.70;;
18917;SDS011;9591;52.742;13.650;2023-12-04T05:26:46;23.77;;;10.65;;
18917;SDS011;9591;52.742;13.650;2023-12-04T05:29:34;18.45;;;9.63;;
18917;SDS011;9591;52.742;13.650;2023-12-04T05:32:21;22.50;;;9.50;;
18917;SDS011;9591;52.742;13.650;2023-12-04T05:35:08;22.40;;;9.35;;
18917;SDS011;9591;52.742;13.650;2023-12-04T05:37:55;14.13;;;8.38;;
18917;SDS011;9591;52.742;13.650;2023-12-04T05:40:42;22.38;;;9.77;;
18917;SDS011;9591;52.742;13.650;2023-12-04T05:43:29;23.67;;;9.73;;
18917;SDS011;9591;52.742;13.650;2023-12-04T05:46:17;22.13;;;10.18;;
18917;SDS011;9591;52.742;13.650;2023-12-04T05:49:05;23.88;;;8.48;;
18917;SDS011;9591;52.742;13.650;2023-12-04T05:51:51;27.23;;;10.05;;
18917;SDS011;9591;52.742;13.650;2023-12-04T05:54:38;21.00;;;8.63;;
18917;SDS011;9591;52.742;13.650;2023-12-04T05:57:25;23.30;;;10.82;;
18917;SDS011;9591;52.742;13.650;2023-12-04T06:00:12;26.35;;;11.05;;
18917;SDS011;9591;52.742;13.650;2023-12-04T06:03:01;21.02;;;9.18;;
18917;SDS011;9591;52.742;13.650;2023-12-04T06:05:48;25.67;;;10.57;;
18917;SDS011;9591;52.742;13.650;2023-12-04T06:08:39;22.73;;;9.18;;
18917;SDS011;9591;52.742;13.650;2023-12-04T06:11:26;21.25;;;10.75;;
18917;SDS011;9591;52.742;13.650;2023-12-04T06:14:13;23.20;;;9.48;;
18917;SDS011;9591;52.742;13.650;2023-12-04T06:17:00;29.25;;;10.20;;
18917;SDS011;9591;52.742;13.650;2023-12-04T06:19:48;19.67;;;8.57;;
18917;SDS011;9591;52.742;13.650;2023-12-04T06:22:36;24.95;;;9.82;;
18917;SDS011;9591;52.742;13.650;2023-12-04T06:25:23;24.63;;;9.80;;
18917;SDS011;9591;52.742;13.650;2023-12-04T06:28:11;20.77;;;10.00;;
18917;SDS011;9591;52.742;13.650;2023-12-04T06:30:59;20.08;;;8.82;;
18917;SDS011;9591;52.742;13.650;2023-12-04T06:33:46;21.67;;;10.25;;
18917;SDS011;9591;52.742;13.650;2023-12-04T06:36:35;23.95;;;9.38;;
18917;SDS011;9591;52.742;13.650;2023-12-04T06:39:26;20.38;;;10.30;;
18917;SDS011;9591;52.742;13.650;2023-12-04T06:42:18;21.08;;;9.82;;
18917;SDS011;9591;52.742;13.650;2023-12-04T06:45:06;19.23;;;8.52;;
18917;SDS011;9591;52.742;13.650;2023-12-04T06:47:54;27.02;;;9.43;;
18917;SDS011;9591;52.742;13.650;2023-12-04T06:50:41;18.33;;;8.27;;
18917;SDS011;9591;52.742;13.650;2023-12-04T06:53:29;27.85;;;10.77;;
18917;SDS011;9591;52.742;13.650;2023-12-04T06:56:16;22.25;;;9.68;;
18917;SDS011;9591;52.742;13.650;2023-12-04T06:59:05;21.17;;;8.65;;
18917;SDS011;9591;52.742;13.650;2023-12-04T07:01:52;17.98;;;8.75;;
18917;SDS011;9591;52.742;13.650;2023-12-04T07:04:39;26.85;;;11.88;;
18917;SDS011;9591;52.742;13.650;2023-12-04T07:07:26;28.88;;;10.07;;
18917;SDS011;9591;52.742;13.650;2023-12-04T07:10:14;14.82;;;8.40;;
18917;SDS011;9591;52.742;13.650;2023-12-04T07:13:01;20.85;;;9.93;;
18917;SDS011;9591;52.742;13.650;2023-12-04T07:15:48;21.05;;;9.90;;
18917;SDS011;9591;52.742;13.650;2023-12-04T07:18:35;26.85;;;10.10;;
18917;SDS011;9591;52.742;13.650;2023-12-04T07:21:22;20.50;;;9.75;;
18917;SDS011;9591;52.742;13.650;2023-12-04T07:24:09;15.63;;;9.00;;
18917;SDS011;9591;52.742;13.650;2023-12-04T07:26:57;19.75;;;9.57;;
18917;SDS011;9591;52.742;13.650;2023-12-04T07:29:44;18.23;;;8.70;;
18917;SDS011;9591;52.742;13.650;2023-12-04T07:32:31;20.60;;;9.68;;
18917;SDS011;9591;52.742;13.650;2023-12-04T07:35:18;24.13;;;10.02;;
18917;SDS011;9591;52.742;13.650;2023-12-04T07:38:05;18.13;;;10.45;;
18917;SDS011;9591;52.742;13.650;2023-12-04T07:40:52;44.25;;;14.15;;
18917;SDS011;9591;52.742;13.650;2023-12-04T07:43:41;55.00;;;16.33;;
18917;SDS011;9591;52.742;13.650;2023-12-04T07:46:28;41.20;;;14.75;;
18917;SDS011;9591;52.742;13.650;2023-12-04T07:49:15;35.40;;;14.32;;
18917;SDS011;9591;52.742;13.650;2023-12-04T07:52:02;39.80;;;15.40;;
18917;SDS011;9591;52.742;13.650;2023-12-04T07:54:50;35.03;;;13.90;;
18917;SDS011;9591;52.742;13.650;2023-12-04T07:57:37;30.63;;;14.43;;
18917;SDS011;9591;52.742;13.650;2023-12-04T08:00:25;38.03;;;13.13;;
18917;SDS011;9591;52.742;13.650;2023-12-04T08:03:12;30.05;;;12.88;;
18917;SDS011;9591;52.742;13.650;2023-12-04T08:05:59;21.80;;;11.03;;
18917;SDS011;9591;52.742;13.650;2023-12-04T08:08:46;35.53;;;13.13;;
18917;SDS011;9591;52.742;13.650;2023-12-04T08:11:34;34.80;;;11.55;;
18917;SDS011;9591;52.742;13.650;2023-12-04T08:14:26;35.20;;;11.67;;
18917;SDS011;9591;52.742;13.650;2023-12-04T08:17:15;25.80;;;12.27;;
18917;SDS011;9591;52.742;13.650;2023-12-04T08:20:02;20.55;;;10.15;;
18917;SDS011;9591;52.742;13.650;2023-12-04T08:22:49;29.13;;;11.27;;
18917;SDS011;9591;52.742;13.650;2023-12-04T08:25:37;32.65;;;12.48;;
18917;SDS011;9591;52.742;13.650;2023-12-04T08:28:25;26.73;;;11.10;;
18917;SDS011;9591;52.742;13.650;2023-12-04T08:31:12;32.73;;;12.90;;
18917;SDS011;9591;52.742;13.650;2023-12-04T08:34:01;27.77;;;12.23;;
18917;SDS011;9591;52.742;13.650;2023-12-04T08:36:48;30.93;;;11.97;;
18917;SDS011;9591;52.742;13.650;2023-12-04T08:39:35;31.07;;;12.23;;
18917;SDS011;9591;52.742;13.650;2023-12-04T08:42:22;29.50;;;11.20;;
18917;SDS011;9591;52.742;13.650;2023-12-04T08:45:09;27.37;;;12.07;;
18917;SDS011;9591;52.742;13.650;2023-12-04T08:47:56;21.20;;;11.43;;
18917;SDS011;9591;52.742;13.650;2023-12-04T08:50:45;23.43;;;10.77;;
18917;SDS011;9591;52.742;13.650;2023-12-04T08:53:31;24.37;;;10.60;;
18917;SDS011;9591;52.742;13.650;2023-12-04T08:56:18;22.03;;;9.33;;
18917;SDS011;9591;52.742;13.650;2023-12-04T08:59:15;24.87;;;11.03;;
18917;SDS011;9591;52.742;13.650;2023-12-04T09:02:02;24.83;;;11.13;;
18917;SDS011;9591;52.742;13.650;2023-12-04T09:04:50;19.87;;;9.20;;
18917;SDS011;9591;52.742;13.650;2023-12-04T09:07:38;23.83;;;9.60;;
18917;SDS011;9591;52.742;13.650;2023-12-04T09:10:44;26.20;;;9.77;;
18917;SDS011;9591;52.742;13.650;2023-12-04T09:13:52;30.80;;;10.57;;
18917;SDS011;9591;52.742;13.650;2023-12-04T09:16:40;25.20;;;10.17;;
18917;SDS011;9591;52.742;13.650;2023-12-04T09:19:27;21.53;;;8.80;;
18917;SDS011;9591;52.742;13.650;2023-12-04T09:22:15;17.13;;;8.70;;
18917;SDS011;9591;52.742;13.650;2023-12-04T09:25:07;23.13;;;10.87;;
18917;SDS011;9591;52.742;13.650;2023-12-04T09:27:55;18.87;;;8.03;;
18917;SDS011;9591;52.742;13.650;2023-12-04T09:30:42;20.70;;;9.00;;
18917;SDS011;9591;52.742;13.650;2023-12-04T09:33:29;22.43;;;8.80;;
18917;SDS011;9591;52.742;13.650;2023-12-04T09:36:16;22.87;;;10.07;;
18917;SDS011;9591;52.742;13.650;2023-12-04T09:39:03;23.73;;;9.67;;
18917;SDS011;9591;52.742;13.650;2023-12-04T09:41:52;17.80;;;8.60;;
18917;SDS011;9591;52.742;13.650;2023-12-04T09:44:40;20.13;;;8.93;;
18917;SDS011;9591;52.742;13.650;2023-12-04T09:47:28;25.27;;;10.10;;
18917;SDS011;9591;52.742;13.650;2023-12-04T09:50:16;21.20;;;9.67;;
18917;SDS011;9591;52.742;13.650;2023-12-04T09:53:08;20.40;;;9.37;;
18917;SDS011;9591;52.742;13.650;2023-12-04T09:55:57;20.37;;;8.70;;
18917;SDS011;9591;52.742;13.650;2023-12-04T09:58:52;19.13;;;9.13;;
18917;SDS011;9591;52.742;13.650;2023-12-04T10:01:44;21.67;;;9.60;;
18917;SDS011;9591;52.742;13.650;2023-12-04T10:04:33;19.57;;;9.33;;
18917;SDS011;9591;52.742;13.650;2023-12-04T10:07:20;22.57;;;8.47;;
18917;SDS011;9591;52.742;13.650;2023-12-04T10:10:07;20.67;;;8.97;;
18917;SDS011;9591;52.742;13.650;2023-12-04T10:12:54;20.53;;;8.40;;
18917;SDS011;9591;52.742;13.650;2023-12-04T10:15:47;22.43;;;8.60;;
18917;SDS011;9591;52.742;13.650;2023-12-04T10:18:34;17.47;;;7.53;;
18917;SDS011;9591;52.742;13.650;2023-12-04T10:21:22;19.17;;;8.93;;
18917;SDS011;9591;52.742;13.650;2023-12-04T10:24:26;17.37;;;8.03;;
18917;SDS011;9591;52.742;13.650;2023-12-04T10:27:15;17.93;;;8.40;;
18917;SDS011;9591;52.742;13.650;2023-12-04T10:30:03;19.60;;;8.40;;
18917;SDS011;9591;52.742;13.650;2023-12-04T10:32:55;21.30;;;8.43;;
18917;SDS011;9591;52.742;13.650;2023-12-04T10:35:46;22.30;;;8.43;;
18917;SDS011;9591;52.742;13.650;2023-12-04T10:38:33;15.37;;;8.17;;
18917;SDS011;9591;52.742;13.650;2023-12-04T10:41:20;19.87;;;8.00;;
18917;SDS011;9591;52.742;13.650;2023-12-04T10:44:07;17.20;;;8.50;;
18917;SDS011;9591;52.742;13.650;2023-12-04T10:46:55;16.43;;;7.73;;
18917;SDS011;9591;52.742;13.650;2023-12-04T10:49:45;20.13;;;8.10;;
18917;SDS011;9591;52.742;13.650;2023-12-04T10:52:33;20.57;;;8.93;;
18917;SDS011;9591;52.742;13.650;2023-12-04T10:55:20;17.27;;;7.93;;
18917;SDS011;9591;52.742;13.650;2023-12-04T10:58:07;20.50;;;8.33;;
18917;SDS011;9591;52.742;13.650;2023-12-04T11:00:55;13.47;;;7.87;;
18917;SDS011;9591;52.742;13.650;2023-12-04T11:03:49;16.63;;;7.13;;
18917;SDS011;9591;52.742;13.650;2023-12-04T11:06:40;17.97;;;7.80;;
18917;SDS011;9591;52.742;13.650;2023-12-04T11:09:28;13.67;;;6.83;;
18917;SDS011;9591;52.742;13.650;2023-12-04T11:12:18;16.90;;;7.83;;
18917;SDS011;9591;52.742;13.650;2023-12-04T11:15:08;16.77;;;7.77;;
18917;SDS011;9591;52.742;13.650;2023-12-04T11:17:59;13.90;;;6.80;;
18917;SDS011;9591;52.742;13.650;2023-12-04T11:20:48;15.53;;;7.63;;
18917;SDS011;9591;52.742;13.650;2023-12-04T11:23:43;17.07;;;7.00;;
18917;SDS011;9591;52.742;13.650;2023-12-04T11:26:29;16.67;;;8.17;;
18917;SDS011;9591;52.742;13.650;2023-12-04T11:29:17;17.53;;;7.73;;
18917;SDS011;9591;52.742;13.650;2023-12-04T11:32:05;18.40;;;7.97;;
18917;SDS011;9591;52.742;13.650;2023-12-04T11:34:54;20.90;;;8.80;;
18917;SDS011;9591;52.742;13.650;2023-12-04T11:37:42;16.10;;;7.60;;
18917;SDS011;9591;52.742;13.650;2023-12-04T11:40:30;19.30;;;7.87;;
18917;SDS011;9591;52.742;13.650;2023-12-04T11:43:21;22.00;;;9.03;;
18917;SDS011;9591;52.742;13.650;2023-12-04T11:46:09;19.47;;;8.60;;
18917;SDS011;9591;52.742;13.650;2023-12-04T11:48:57;15.77;;;7.73;;
18917;SDS011;9591;52.742;13.650;2023-12-04T11:52:14;15.90;;;8.10;;
18917;SDS011;9591;52.742;13.650;2023-12-04T11:55:01;17.57;;;8.23;;
18917;SDS011;9591;52.742;13.650;2023-12-04T11:57:54;17.30;;;7.53;;
18917;SDS011;9591;52.742;13.650;2023-12-04T12:00:43;16.20;;;7.93;;
18917;SDS011;9591;52.742;13.650;2023-12-04T12:03:30;17.63;;;9.10;;
18917;SDS011;9591;52.742;13.650;2023-12-04T12:06:17;19.30;;;8.93;;
18917;SDS011;9591;52.742;13.650;2023-12-04T12:09:04;19.63;;;9.37;;
18917;SDS011;9591;52.742;13.650;2023-12-04T12:11:52;16.80;;;8.60;;
18917;SDS011;9591;52.742;13.650;2023-12-04T12:14:41;17.07;;;7.83;;
18917;SDS011;9591;52.742;13.650;2023-12-04T12:17:28;20.37;;;8.60;;
18917;SDS011;9591;52.742;13.650;2023-12-04T12:20:15;17.83;;;8.07;;
18917;SDS011;9591;52.742;13.650;2023-12-04T12:23:02;17.57;;;8.47;;
18917;SDS011;9591;52.742;13.650;2023-12-04T12:25:49;19.90;;;8.63;;
18917;SDS011;9591;52.742;13.650;2023-12-04T12:28:36;11.87;;;5.97;;
18917;SDS011;9591;52.742;13.650;2023-12-04T12:31:24;18.20;;;8.77;;
18917;SDS011;9591;52.742;13.650;2023-12-04T12:34:12;17.17;;;8.23;;
18917;SDS011;9591;52.742;13.650;2023-12-04T12:36:59;19.57;;;8.53;;
18917;SDS011;9591;52.742;13.650;2023-12-04T12:39:46;16.97;;;8.10;;
18917;SDS011;9591;52.742;13.650;2023-12-04T12:42:34;17.00;;;8.33;;
18917;SDS011;9591;52.742;13.650;2023-12-04T12:45:21;20.87;;;8.77;;
18917;SDS011;9591;52.742;13.650;2023-12-04T12:48:11;18.13;;;8.90;;
18917;SDS011;9591;52.742;13.650;2023-12-04T12:50:59;21.03;;;9.93;;
18917;SDS011;9591;52.742;13.650;2023-12-04T12:53:46;21.80;;;10.40;;
18917;SDS011;9591;52.742;13.650;2023-12-04T12:56:36;17.00;;;9.00;;
18917;SDS011;9591;52.742;13.650;2023-12-04T12:59:23;17.30;;;7.93;;
18917;SDS011;9591;52.742;13.650;2023-12-04T13:02:10;20.00;;;8.50;;
18917;SDS011;9591;52.742;13.650;2023-12-04T13:04:59;17.97;;;7.83;;
18917;SDS011;9591;52.742;13.650;2023-12-04T13:07:46;18.47;;;8.23;;
18917;SDS011;9591;52.742;13.650;2023-12-04T13:10:33;20.13;;;8.73;;
18917;SDS011;9591;52.742;13.650;2023-12-04T13:13:20;16.17;;;8.30;;
18917;SDS011;9591;52.742;13.650;2023-12-04T13:16:10;18.37;;;8.80;;
18917;SDS011;9591;52.742;13.650;2023-12-04T13:18:57;21.30;;;8.50;;
18917;SDS011;9591;52.742;13.650;2023-12-04T13:21:45;15.67;;;7.70;;
18917;SDS011;9591;52.742;13.650;2023-12-04T13:24:32;20.70;;;8.13;;
18917;SDS011;9591;52.742;13.650;2023-12-04T13:27:19;20.07;;;9.53;;
18917;SDS011;9591;52.742;13.650;2023-12-04T13:30:06;26.30;;;8.80;;
18917;SDS011;9591;52.742;13.650;2023-12-04T13:32:54;18.10;;;7.63;;
18917;SDS011;9591;52.742;13.650;2023-12-04T13:35:41;19.93;;;7.87;;
18917;SDS011;9591;52.742;13.650;2023-12-04T13:38:30;19.00;;;9.33;;
18917;SDS011;9591;52.742;13.650;2023-12-04T13:41:21;19.27;;;8.60;;
18917;SDS011;9591;52.742;13.650;2023-12-04T13:44:26;15.67;;;7.57;;
18917;SDS011;9591;52.742;13.650;2023-12-04T13:47:13;21.23;;;9.07;;
18917;SDS011;9591;52.742;13.650;2023-12-04T13:50:01;16.20;;;8.10;;
18917;SDS011;9591;52.742;13.650;2023-12-04T13:52:48;26.00;;;11.17;;
18917;SDS011;9591;52.742;13.650;2023-12-04T13:55:42;17.23;;;8.07;;
18917;SDS011;9591;52.742;13.650;2023-12-04T13:58:53;18.97;;;7.73;;
18917;SDS011;9591;52.742;13.650;2023-12-04T14:01:42;21.83;;;8.47;;
18917;SDS011;9591;52.742;13.650;2023-12-04T14:04:29;17.30;;;8.57;;
18917;SDS011;9591;52.742;13.650;2023-12-04T14:07:16;18.63;;;8.53;;
18917;SDS011;9591;52.742;13.650;2023-12-04T14:10:05;16.03;;;7.83;;
18917;SDS011;9591;52.742;13.650;2023-12-04T14:12:55;19.50;;;8.73;;
18917;SDS011;9591;52.742;13.650;2023-12-04T14:15:44;18.43;;;8.47;;
18917;SDS011;9591;52.742;13.650;2023-12-04T14:18:30;17.50;;;8.77;;
18917;SDS011;9591;52.742;13.650;2023-12-04T14:21:18;24.90;;;9.70;;
18917;SDS011;9591;52.742;13.650;2023-12-04T14:24:05;21.20;;;9.87;;
18917;SDS011;9591;52.742;13.650;2023-12-04T14:26:52;20.70;;;9.50;;
18917;SDS011;9591;52.742;13.650;2023-12-04T14:29:41;21.40;;;9.23;;
18917;SDS011;9591;52.742;13.650;2023-12-04T14:32:28;19.97;;;9.17;;
18917;SDS011;9591;52.742;13.650;2023-12-04T14:35:27;23.40;;;9.47;;
18917;SDS011;9591;52.742;13.650;2023-12-04T14:38:14;20.17;;;10.50;;
18917;SDS011;9591;52.742;13.650;2023-12-04T14:41:01;23.70;;;10.03;;
18917;SDS011;9591;52.742;13.650;2023-12-04T14:43:48;24.00;;;9.80;;
18917;SDS011;9591;52.742;13.650;2023-12-04T14:46:36;23.53;;;10.20;;
18917;SDS011;9591;52.742;13.650;2023-12-04T14:49:23;23.93;;;8.80;;
18917;SDS011;9591;52.742;13.650;2023-12-04T14:52:10;23.60;;;9.03;;
18917;SDS011;9591;52.742;13.650;2023-12-04T14:54:57;22.47;;;9.00;;
18917;SDS011;9591;52.742;13.650;2023-12-04T14:58:12;26.10;;;9.77;;
18917;SDS011;9591;52.742;13.650;2023-12-04T15:01:26;28.17;;;11.30;;
18917;SDS011;9591;52.742;13.650;2023-12-04T15:04:56;21.13;;;9.77;;
18917;SDS011;9591;52.742;13.650;2023-12-04T15:08:00;20.93;;;10.33;;
18917;SDS011;9591;52.742;13.650;2023-12-04T15:11:16;27.37;;;10.13;;
18917;SDS011;9591;52.742;13.650;2023-12-04T15:14:27;19.43;;;9.50;;
18917;SDS011;9591;52.742;13.650;2023-12-04T15:17:24;23.60;;;10.20;;
18917;SDS011;9591;52.742;13.650;2023-12-04T15:20:20;24.43;;;10.67;;
18917;SDS011;9591;52.742;13.650;2023-12-04T15:23:18;20.77;;;9.63;;
18917;SDS011;9591;52.742;13.650;2023-12-04T15:26:04;19.43;;;9.23;;
18917;SDS011;9591;52.742;13.650;2023-12-04T15:28:51;21.00;;;10.40;;
18917;SDS011;9591;52.742;13.650;2023-12-04T15:31:37;21.87;;;7.80;;
18917;SDS011;9591;52.742;13.650;2023-12-04T15:34:24;23.63;;;9.87;;
18917;SDS011;9591;52.742;13.650;2023-12-04T15:37:14;22.17;;;10.00;;
18917;SDS011;9591;52.742;13.650;2023-12-04T15:40:01;24.23;;;11.20;;
18917;SDS011;9591;52.742;13.650;2023-12-04T15:42:50;28.97;;;12.13;;
18917;SDS011;9591;52.742;13.650;2023-12-04T15:45:35;43.87;;;14.03;;
18917;SDS011;9591;52.742;13.650;2023-12-04T15:48:22;29.23;;;12.20;;
18917;SDS011;9591;52.742;13.650;2023-12-04T15:51:09;31.57;;;13.57;;
18917;SDS011;9591;52.742;13.650;2023-12-04T15:53:57;38.13;;;14.50;;
18917;SDS011;9591;52.742;13.650;2023-12-04T15:56:44;31.07;;;12.77;;
18917;SDS011;9591;52.742;13.650;2023-12-04T15:59:30;24.43;;;9.63;;
18917;SDS011;9591;52.742;13.650;2023-12-04T16:02:17;18.07;;;9.17;;
18917;SDS011;9591;52.742;13.650;2023-12-04T16:05:03;16.47;;;9.50;;
18917;SDS011;9591;52.742;13.650;2023-12-04T16:07:51;21.50;;;10.57;;
18917;SDS011;9591;52.742;13.650;2023-12-04T16:10:40;21.83;;;10.13;;
18917;SDS011;9591;52.742;13.650;2023-12-04T16:13:27;19.73;;;8.67;;
18917;SDS011;9591;52.742;13.650;2023-12-04T16:16:14;21.60;;;9.07;;
18917;SDS011;9591;52.742;13.650;2023-12-04T16:19:01;22.57;;;10.13;;
18917;SDS011;9591;52.742;13.650;2023-12-04T16:21:49;21.60;;;9.17;;
18917;SDS011;9591;52.742;13.650;2023-12-04T16:24:36;19.43;;;9.80;;
18917;SDS011;9591;52.742;13.650;2023-12-04T16:27:25;22.53;;;10.43;;
18917;SDS011;9591;52.742;13.650;2023-12-04T16:30:12;18.67;;;8.87;;
18917;SDS011;9591;52.742;13.650;2023-12-04T16:32:59;16.37;;;8.33;;
18917;SDS011;9591;52.742;13.650;2023-12-04T16:35:46;20.30;;;9.10;;
18917;SDS011;9591;52.742;13.650;2023-12-04T16:38:33;21.47;;;8.60;;